createdAt,value
2023-10-21T00:01:19.689Z,9.50
2023-10-21T00:03:46.555Z,9.50
2023-10-21T00:06:13.469Z,9.50
2023-10-21T00:08:40.334Z,9.40
2023-10-21T00:11:10.525Z,9.40
2023-10-21T00:13:37.503Z,9.50
2023-10-21T00:16:05.190Z,9.40
2023-10-21T00:18:32.101Z,9.40
2023-10-21T00:20:59.038Z,9.50
2023-10-21T00:23:25.862Z,9.60
2023-10-21T00:25:52.699Z,9.70
2023-10-21T00:28:19.495Z,9.70
2023-10-21T00:30:49.538Z,9.70
2023-10-21T00:33:16.834Z,9.70
2023-10-21T00:35:47.029Z,9.60
2023-10-21T00:38:14.292Z,9.60
2023-10-21T00:40:51.366Z,9.60
2023-10-21T00:43:34.667Z,9.50
2023-10-21T00:46:17.056Z,9.50
2023-10-21T00:48:44.402Z,9.60
2023-10-21T00:51:11.920Z,9.60
2023-10-21T00:53:39.438Z,9.70
2023-10-21T00:56:07.350Z,9.80
2023-10-21T00:58:36.056Z,9.80
2023-10-21T01:01:07.294Z,9.70
2023-10-21T01:03:35.620Z,9.80
2023-10-21T01:06:02.881Z,9.70
2023-10-21T01:08:29.737Z,9.80
2023-10-21T01:10:56.903Z,9.80
2023-10-21T01:13:23.683Z,9.70
2023-10-21T01:15:50.688Z,9.70
2023-10-21T01:18:17.613Z,9.70
2023-10-21T01:20:44.470Z,9.80
2023-10-21T01:23:15.805Z,9.80
2023-10-21T01:25:42.612Z,9.80
2023-10-21T01:28:09.437Z,9.80
2023-10-21T01:30:36.175Z,9.90
2023-10-21T01:33:03.943Z,9.90
2023-10-21T01:35:30.773Z,9.90
2023-10-21T01:37:57.581Z,10.00
2023-10-21T01:40:24.312Z,10.00
2023-10-21T01:42:51.052Z,10.10
2023-10-21T01:45:17.850Z,10.20
2023-10-21T01:47:44.755Z,10.20
2023-10-21T01:50:12.955Z,10.30
2023-10-21T01:52:40.084Z,10.30
2023-10-21T01:55:08.340Z,10.40
2023-10-21T01:57:35.154Z,10.50
2023-10-21T02:00:09.887Z,10.50
2023-10-21T02:02:40.449Z,10.60
2023-10-21T02:05:07.736Z,10.60
2023-10-21T02:07:38.347Z,10.80
2023-10-21T02:10:06.184Z,10.80
2023-10-21T02:12:33.567Z,10.80
2023-10-21T02:15:00.950Z,10.80
2023-10-21T02:17:28.103Z,10.90
2023-10-21T02:19:58.083Z,10.90
2023-10-21T02:22:26.086Z,10.90
2023-10-21T02:24:54.499Z,11.10
2023-10-21T02:27:21.744Z,11.00
2023-10-21T02:29:49.338Z,11.00
2023-10-21T02:32:16.923Z,11.00
2023-10-21T02:34:43.757Z,11.00
2023-10-21T02:37:10.563Z,11.00
2023-10-21T02:39:38.812Z,11.10
2023-10-21T02:42:05.829Z,11.10
2023-10-21T02:44:32.581Z,11.10
2023-10-21T02:46:59.810Z,11.10
2023-10-21T02:49:26.634Z,11.10
2023-10-21T02:51:53.400Z,11.20
2023-10-21T02:54:20.219Z,11.20
2023-10-21T02:56:47.064Z,11.20
2023-10-21T02:59:13.957Z,11.20
2023-10-21T03:01:41.590Z,11.20
2023-10-21T03:04:08.958Z,11.20
2023-10-21T03:06:37.120Z,11.30
2023-10-21T03:09:07.595Z,11.30
2023-10-21T03:11:34.965Z,11.30
2023-10-21T03:14:01.734Z,11.20
2023-10-21T03:16:28.490Z,11.20
2023-10-21T03:18:55.379Z,11.20
2023-10-21T03:21:22.159Z,11.20
2023-10-21T03:23:49.205Z,11.20
2023-10-21T03:26:15.955Z,11.20
2023-10-21T03:28:44.867Z,11.30
2023-10-21T03:31:11.776Z,11.30
2023-10-21T03:33:39.164Z,11.30
2023-10-21T03:36:06.834Z,11.40
2023-10-21T03:38:34.052Z,11.40
2023-10-21T03:41:13.775Z,11.40
2023-10-21T03:43:40.638Z,11.40
2023-10-21T03:46:15.712Z,11.40
2023-10-21T03:48:43.223Z,11.40
2023-10-21T03:51:12.421Z,11.40
2023-10-21T03:53:44.427Z,11.40
2023-10-21T03:56:11.568Z,11.40
2023-10-21T03:58:39.393Z,11.40
2023-10-21T04:01:06.984Z,11.40
2023-10-21T04:03:34.849Z,11.40
2023-10-21T04:06:02.005Z,11.50
2023-10-21T04:08:30.842Z,11.40
2023-10-21T04:10:57.593Z,11.40
2023-10-21T04:13:24.462Z,11.40
2023-10-21T04:15:51.267Z,11.40
2023-10-21T04:18:19.101Z,11.40
2023-10-21T04:20:46.766Z,11.40
2023-10-21T04:23:13.839Z,11.40
2023-10-21T04:25:40.776Z,11.40
2023-10-21T04:28:08.329Z,11.40
2023-10-21T04:30:36.494Z,11.40
2023-10-21T04:33:04.807Z,11.40
2023-10-21T04:35:31.661Z,11.40
2023-10-21T04:37:58.836Z,11.40
2023-10-21T04:40:25.768Z,11.40
2023-10-21T04:42:52.535Z,11.40
2023-10-21T04:45:19.772Z,11.40
2023-10-21T04:47:46.793Z,11.50
2023-10-21T04:50:13.745Z,11.60
2023-10-21T04:52:40.516Z,11.40
2023-10-21T04:55:07.531Z,11.50
2023-10-21T04:57:34.380Z,11.50
2023-10-21T05:00:01.317Z,11.50
2023-10-21T05:02:29.366Z,11.50
2023-10-21T05:04:56.233Z,11.60
2023-10-21T05:07:23.019Z,11.50
2023-10-21T05:09:50.871Z,11.50
2023-10-21T05:12:17.648Z,11.50
2023-10-21T05:14:44.847Z,11.60
2023-10-21T05:17:11.587Z,11.60
2023-10-21T05:19:38.466Z,11.80
2023-10-21T05:22:05.182Z,11.60
2023-10-21T05:24:32.163Z,11.60
2023-10-21T05:26:59.535Z,11.60
2023-10-21T05:29:27.080Z,11.60
2023-10-21T05:31:54.555Z,11.60
2023-10-21T05:34:21.596Z,11.60
2023-10-21T05:36:48.475Z,11.70
2023-10-21T05:39:15.457Z,11.70
2023-10-21T05:41:42.782Z,11.70
2023-10-21T05:44:10.721Z,11.80
2023-10-21T05:46:37.753Z,11.70
2023-10-21T05:49:05.384Z,11.70
2023-10-21T05:51:32.978Z,11.70
2023-10-21T05:54:00.355Z,11.70
2023-10-21T05:56:27.263Z,11.70
2023-10-21T05:58:54.048Z,11.80
2023-10-21T06:01:20.901Z,11.70
2023-10-21T06:03:47.949Z,11.70
2023-10-21T06:06:15.264Z,11.70
2023-10-21T06:08:42.445Z,11.70
2023-10-21T06:11:09.518Z,11.70
2023-10-21T06:13:36.618Z,11.70
2023-10-21T06:16:04.114Z,11.80
2023-10-21T06:18:31.140Z,11.70
2023-10-21T06:20:58.177Z,11.80
2023-10-21T06:23:25.170Z,11.80
2023-10-21T06:25:52.181Z,11.80
2023-10-21T06:28:19.193Z,11.80
2023-10-21T06:30:46.065Z,11.80
2023-10-21T06:33:13.222Z,11.80
2023-10-21T06:35:40.571Z,11.90
2023-10-21T06:38:08.558Z,11.80
2023-10-21T06:40:47.529Z,11.80
2023-10-21T06:43:19.338Z,11.80
2023-10-21T06:45:46.786Z,11.80
2023-10-21T06:48:13.750Z,11.80
2023-10-21T06:50:40.823Z,11.90
2023-10-21T06:53:07.690Z,11.90
2023-10-21T06:55:42.883Z,11.90
2023-10-21T06:58:10.737Z,12.00
2023-10-21T07:00:38.381Z,12.00
2023-10-21T07:03:07.139Z,12.10
2023-10-21T07:05:35.123Z,12.00
2023-10-21T07:08:02.237Z,12.00
2023-10-21T07:10:30.901Z,12.00
2023-10-21T07:12:59.289Z,12.10
2023-10-21T07:15:29.371Z,12.10
2023-10-21T07:17:58.357Z,12.10
2023-10-21T07:20:27.151Z,12.10
2023-10-21T07:22:55.282Z,12.00
2023-10-21T07:25:22.620Z,12.10
2023-10-21T07:27:49.400Z,12.10
2023-10-21T07:30:17.096Z,12.10
2023-10-21T07:32:44.173Z,12.20
2023-10-21T07:35:11.403Z,12.20
2023-10-21T07:37:38.650Z,12.20
2023-10-21T07:40:07.421Z,12.20
2023-10-21T07:42:34.315Z,12.20
2023-10-21T07:45:01.247Z,12.20
2023-10-21T07:47:28.722Z,12.20
2023-10-21T07:49:56.464Z,12.30
2023-10-21T07:52:23.868Z,12.30
2023-10-21T07:54:50.909Z,12.30
2023-10-21T07:57:17.922Z,12.40
2023-10-21T07:59:45.719Z,12.50
2023-10-21T08:02:12.776Z,12.60
2023-10-21T08:04:39.783Z,12.70
2023-10-21T08:07:06.981Z,12.80
2023-10-21T08:09:33.799Z,13.10
2023-10-21T08:12:00.695Z,13.40
2023-10-21T08:14:31.440Z,13.50
2023-10-21T08:16:59.209Z,13.70
2023-10-21T08:19:26.002Z,13.90
2023-10-21T08:21:52.799Z,14.10
2023-10-21T08:24:19.639Z,14.20
2023-10-21T08:26:46.432Z,14.20
2023-10-21T08:29:13.169Z,14.00
2023-10-21T08:31:39.906Z,13.90
2023-10-21T08:34:10.788Z,13.80
2023-10-21T08:36:37.624Z,13.80
2023-10-21T08:39:08.296Z,13.70
2023-10-21T08:41:39.895Z,13.80
2023-10-21T08:44:08.772Z,13.80
2023-10-21T08:46:36.562Z,13.80
2023-10-21T08:49:04.917Z,13.90
2023-10-21T08:51:34.124Z,13.90
2023-10-21T08:54:04.852Z,13.90
2023-10-21T08:56:34.946Z,14.00
2023-10-21T08:59:02.581Z,14.00
2023-10-21T09:01:29.670Z,14.10
2023-10-21T09:03:57.765Z,14.00
2023-10-21T09:06:25.178Z,14.10
2023-10-21T09:08:52.392Z,14.20
2023-10-21T09:11:26.079Z,14.20
2023-10-21T09:13:55.909Z,14.20
2023-10-21T09:16:25.063Z,14.20
2023-10-21T09:19:02.738Z,14.20
2023-10-21T09:21:39.454Z,14.40
2023-10-21T09:24:13.744Z,14.40
2023-10-21T09:26:42.204Z,14.40
2023-10-21T09:29:19.443Z,14.40
2023-10-21T09:31:54.801Z,14.60
2023-10-21T09:34:29.397Z,14.70
2023-10-21T09:37:06.595Z,14.80
2023-10-21T09:39:37.878Z,15.10
2023-10-21T09:42:06.353Z,15.50
2023-10-21T09:44:37.249Z,15.80
2023-10-21T09:47:08.391Z,15.70
2023-10-21T09:49:39.422Z,15.70
2023-10-21T09:52:15.174Z,16.00
2023-10-21T09:54:53.486Z,16.30
2023-10-21T09:57:21.040Z,16.40
2023-10-21T09:59:48.381Z,16.70
2023-10-21T10:02:16.310Z,16.60
2023-10-21T10:04:43.965Z,16.30
2023-10-21T10:07:23.005Z,16.10
2023-10-21T10:09:58.563Z,16.20
2023-10-21T10:12:32.000Z,16.60
2023-10-21T10:15:01.111Z,16.60
2023-10-21T10:17:47.703Z,16.60
2023-10-21T10:20:24.179Z,16.50
2023-10-21T10:23:02.645Z,16.70
2023-10-21T10:25:34.185Z,16.80
2023-10-21T10:28:15.166Z,16.70
2023-10-21T10:30:46.048Z,16.50
2023-10-21T10:33:17.307Z,16.60
2023-10-21T10:35:48.965Z,16.50
2023-10-21T10:38:26.810Z,16.60
2023-10-21T10:41:03.178Z,16.40
2023-10-21T10:43:29.986Z,16.10
2023-10-21T10:45:57.329Z,16.00
2023-10-21T10:48:24.703Z,15.90
2023-10-21T10:50:58.236Z,15.90
2023-10-21T10:53:25.103Z,15.80
2023-10-21T10:55:55.826Z,15.60
2023-10-21T10:58:23.533Z,15.50
2023-10-21T11:00:52.341Z,15.40
2023-10-21T11:03:29.970Z,15.20
2023-10-21T11:05:59.185Z,15.40
2023-10-21T11:08:27.188Z,15.50
2023-10-21T11:11:09.491Z,15.60
2023-10-21T11:13:36.269Z,15.60
2023-10-21T11:16:06.993Z,15.80
2023-10-21T11:18:34.958Z,16.00
2023-10-21T11:21:02.020Z,16.40
2023-10-21T11:23:29.360Z,16.60
2023-10-21T11:25:58.567Z,16.70
2023-10-21T11:28:29.213Z,16.90
2023-10-21T11:30:59.136Z,16.70
2023-10-21T11:33:28.162Z,16.70
2023-10-21T11:35:55.427Z,16.40
2023-10-21T11:38:23.202Z,16.50
2023-10-21T11:40:50.104Z,16.50
2023-10-21T11:43:19.480Z,16.60
2023-10-21T11:45:50.739Z,16.40
2023-10-21T11:48:18.537Z,16.40
2023-10-21T11:50:46.586Z,16.40
2023-10-21T11:53:14.510Z,16.40
2023-10-21T11:55:51.243Z,16.30
2023-10-21T11:58:28.710Z,16.50
2023-10-21T12:01:00.611Z,16.50
2023-10-21T12:03:46.808Z,16.60
2023-10-21T12:06:16.979Z,16.60
2023-10-21T12:09:06.871Z,16.60
2023-10-21T12:12:03.463Z,16.70
2023-10-21T12:14:53.634Z,17.00
2023-10-21T12:17:20.898Z,16.80
2023-10-21T12:20:06.665Z,16.70
2023-10-21T12:22:52.214Z,16.70
2023-10-21T12:25:37.988Z,16.80
2023-10-21T12:28:14.710Z,17.00
2023-10-21T12:31:00.652Z,17.00
2023-10-21T12:33:27.522Z,17.00
2023-10-21T12:36:00.432Z,17.20
2023-10-21T12:38:40.651Z,17.10
2023-10-21T12:41:10.831Z,17.00
2023-10-21T12:43:38.060Z,17.00
2023-10-21T12:46:18.221Z,16.80
2023-10-21T12:48:53.209Z,16.50
2023-10-21T12:51:22.016Z,16.70
2023-10-21T12:53:53.188Z,16.70
2023-10-21T12:56:24.930Z,16.80
2023-10-21T12:58:51.746Z,16.80
2023-10-21T13:01:21.208Z,16.60
2023-10-21T13:03:51.280Z,16.60
2023-10-21T13:06:18.333Z,16.60
2023-10-21T13:08:45.191Z,16.40
2023-10-21T13:11:14.643Z,16.40
2023-10-21T13:13:41.589Z,16.50
2023-10-21T13:16:09.506Z,17.00
2023-10-21T13:18:36.878Z,17.30
2023-10-21T13:21:07.881Z,17.20
2023-10-21T13:23:36.056Z,17.30
2023-10-21T13:26:07.743Z,17.40
2023-10-21T13:28:35.730Z,17.30
2023-10-21T13:31:03.786Z,17.30
2023-10-21T13:33:30.796Z,17.10
2023-10-21T13:35:57.731Z,17.20
2023-10-21T13:38:24.823Z,17.30
2023-10-21T13:40:51.883Z,17.20
2023-10-21T13:43:19.275Z,16.90
2023-10-21T13:45:46.360Z,16.90
2023-10-21T13:48:13.396Z,17.10
2023-10-21T13:50:40.788Z,16.90
2023-10-21T13:53:15.592Z,16.70
2023-10-21T13:55:44.357Z,16.50
2023-10-21T13:58:12.240Z,16.60
2023-10-21T14:00:39.576Z,16.50
2023-10-21T14:03:10.606Z,16.50
2023-10-21T14:05:39.122Z,16.40
2023-10-21T14:08:13.781Z,16.30
2023-10-21T14:10:44.182Z,16.50
2023-10-21T14:13:20.786Z,17.10
2023-10-21T14:15:51.312Z,17.30
2023-10-21T14:18:19.171Z,17.30
2023-10-21T14:20:53.482Z,17.30
2023-10-21T14:23:25.225Z,17.50
2023-10-21T14:25:53.901Z,17.40
2023-10-21T14:28:21.186Z,17.60
2023-10-21T14:30:50.036Z,18.20
2023-10-21T14:33:19.176Z,17.70
2023-10-21T14:35:55.659Z,17.40
2023-10-21T14:38:24.500Z,16.80
2023-10-21T14:40:51.313Z,16.40
2023-10-21T14:43:18.584Z,16.40
2023-10-21T14:45:47.419Z,16.30
2023-10-21T14:48:15.030Z,16.60
2023-10-21T14:50:44.536Z,16.80
2023-10-21T14:53:12.576Z,16.50
2023-10-21T14:55:51.606Z,16.40
2023-10-21T14:58:23.578Z,16.20
2023-10-21T15:00:50.928Z,16.10
2023-10-21T15:03:21.497Z,16.00
2023-10-21T15:05:49.854Z,16.00
2023-10-21T15:08:21.593Z,15.90
2023-10-21T15:10:49.268Z,15.90
2023-10-21T15:13:16.267Z,15.90
2023-10-21T15:15:44.207Z,15.90
2023-10-21T15:18:11.685Z,15.90
2023-10-21T15:20:38.724Z,15.80
2023-10-21T15:23:05.602Z,15.80
2023-10-21T15:25:34.137Z,15.90
2023-10-21T15:28:00.918Z,16.00
2023-10-21T15:30:27.784Z,16.40
2023-10-21T15:32:57.573Z,16.50
2023-10-21T15:35:26.399Z,16.40
2023-10-21T15:37:53.642Z,16.20
2023-10-21T15:40:21.622Z,16.10
2023-10-21T15:42:50.174Z,15.80
2023-10-21T15:45:17.262Z,15.70
2023-10-21T15:47:44.440Z,15.60
2023-10-21T15:50:11.647Z,15.60
2023-10-21T15:52:39.085Z,15.50
2023-10-21T15:55:06.727Z,15.40
2023-10-21T15:57:34.386Z,15.30
2023-10-21T16:00:04.051Z,15.20
2023-10-21T16:02:38.448Z,15.10
2023-10-21T16:05:05.963Z,15.00
2023-10-21T16:07:36.851Z,15.00
2023-10-21T16:10:10.118Z,14.90
2023-10-21T16:12:37.104Z,14.90
2023-10-21T16:15:05.169Z,14.80
2023-10-21T16:17:33.444Z,14.70
2023-10-21T16:20:00.964Z,14.60
2023-10-21T16:22:28.167Z,14.70
2023-10-21T16:24:56.257Z,14.70
2023-10-21T16:27:24.214Z,14.70
2023-10-21T16:29:51.386Z,14.70
2023-10-21T16:32:18.383Z,14.60
2023-10-21T16:34:45.710Z,14.60
2023-10-21T16:37:12.831Z,14.70
2023-10-21T16:39:40.250Z,14.60
2023-10-21T16:42:08.966Z,14.70
2023-10-21T16:44:37.780Z,14.70
2023-10-21T16:47:05.152Z,14.70
2023-10-21T16:49:32.869Z,14.60
2023-10-21T16:51:59.984Z,14.50
2023-10-21T16:54:28.417Z,14.40
2023-10-21T16:56:56.903Z,14.30
2023-10-21T16:59:24.114Z,14.20
2023-10-21T17:01:51.187Z,14.10
2023-10-21T17:04:18.082Z,14.00
2023-10-21T17:06:45.056Z,13.90
2023-10-21T17:09:11.926Z,13.80
2023-10-21T17:11:39.007Z,13.80
2023-10-21T17:14:05.816Z,13.70
2023-10-21T17:16:33.020Z,13.70
2023-10-21T17:19:00.270Z,13.60
2023-10-21T17:21:27.305Z,13.60
2023-10-21T17:23:54.754Z,13.60
2023-10-21T17:26:22.758Z,13.60
2023-10-21T17:28:49.823Z,13.60
2023-10-21T17:31:16.871Z,13.60
2023-10-21T17:33:50.875Z,13.60
2023-10-21T17:36:18.826Z,13.60
2023-10-21T17:38:45.839Z,13.60
2023-10-21T17:41:12.628Z,13.60
2023-10-21T17:43:39.444Z,13.60
2023-10-21T17:46:06.410Z,13.70
2023-10-21T17:48:34.227Z,13.50
2023-10-21T17:51:01.336Z,13.30
2023-10-21T17:53:28.924Z,13.30
2023-10-21T17:55:56.364Z,13.30
2023-10-21T17:58:23.278Z,13.40
2023-10-21T18:00:50.064Z,13.40
2023-10-21T18:03:17.164Z,13.30
2023-10-21T18:05:45.538Z,13.20
2023-10-21T18:08:13.176Z,13.20
2023-10-21T18:10:39.962Z,13.20
2023-10-21T18:13:06.795Z,13.20
2023-10-21T18:15:33.590Z,13.10
2023-10-21T18:18:00.436Z,13.10
2023-10-21T18:20:27.302Z,13.10
2023-10-21T18:22:55.811Z,13.10
2023-10-21T18:25:22.915Z,13.00
2023-10-21T18:27:49.740Z,13.00
2023-10-21T18:30:16.649Z,13.00
2023-10-21T18:32:43.611Z,12.90
2023-10-21T18:35:10.711Z,12.90
2023-10-21T18:37:37.480Z,12.80
2023-10-21T18:40:05.005Z,12.70
2023-10-21T18:42:32.041Z,12.90
2023-10-21T18:44:58.863Z,12.80
2023-10-21T18:47:25.726Z,12.80
2023-10-21T18:49:52.511Z,12.90
2023-10-21T18:52:20.670Z,12.80
2023-10-21T18:54:50.144Z,12.80
2023-10-21T18:57:17.807Z,12.70
2023-10-21T18:59:44.615Z,12.70
2023-10-21T19:02:17.664Z,12.60
2023-10-21T19:04:45.806Z,12.70
2023-10-21T19:07:12.709Z,12.70
2023-10-21T19:09:39.772Z,12.60
2023-10-21T19:12:06.745Z,12.60
2023-10-21T19:14:34.702Z,12.70
2023-10-21T19:17:01.632Z,12.60
2023-10-21T19:19:31.538Z,12.60
2023-10-21T19:21:59.546Z,12.60
2023-10-21T19:24:27.280Z,12.70
2023-10-21T19:26:54.096Z,12.70
2023-10-21T19:29:20.879Z,12.70
2023-10-21T19:31:49.272Z,12.70
2023-10-21T19:34:16.038Z,12.70
2023-10-21T19:36:42.873Z,12.70
2023-10-21T19:39:09.598Z,12.80
2023-10-21T19:41:36.370Z,12.80
2023-10-21T19:44:18.473Z,13.00
2023-10-21T19:46:51.521Z,12.90
2023-10-21T19:49:23.736Z,13.10
2023-10-21T19:51:51.310Z,13.10
2023-10-21T19:54:18.324Z,13.10
2023-10-21T19:56:45.414Z,13.30
2023-10-21T19:59:12.326Z,13.20
2023-10-21T20:01:39.383Z,13.10
2023-10-21T20:04:07.575Z,13.10
2023-10-21T20:06:34.543Z,13.30
2023-10-21T20:09:01.433Z,13.30
2023-10-21T20:11:28.336Z,13.20
2023-10-21T20:13:55.134Z,13.10
2023-10-21T20:16:23.270Z,13.20
2023-10-21T20:18:50.358Z,13.10
2023-10-21T20:21:19.950Z,13.10
2023-10-21T20:23:46.721Z,13.10
2023-10-21T20:26:17.586Z,13.10
2023-10-21T20:28:45.022Z,13.20
2023-10-21T20:31:12.952Z,13.20
2023-10-21T20:33:40.050Z,13.10
2023-10-21T20:36:10.355Z,13.20
2023-10-21T20:38:38.539Z,13.00
2023-10-21T20:41:13.429Z,13.00
2023-10-21T20:43:42.182Z,13.10
2023-10-21T20:46:09.507Z,13.00
2023-10-21T20:48:36.880Z,13.10
2023-10-21T20:51:04.374Z,13.00
2023-10-21T20:53:33.204Z,13.20
2023-10-21T20:56:00.278Z,13.10
2023-10-21T20:58:27.038Z,13.00
2023-10-21T21:00:55.062Z,13.00
2023-10-21T21:03:24.376Z,13.10
2023-10-21T21:05:51.389Z,13.20
2023-10-21T21:08:18.384Z,13.40
2023-10-21T21:10:45.192Z,13.30
2023-10-21T21:13:12.062Z,13.40
2023-10-21T21:15:40.157Z,13.40
2023-10-21T21:18:07.029Z,13.30
2023-10-21T21:20:33.827Z,13.40
2023-10-21T21:23:00.775Z,13.40
2023-10-21T21:25:27.540Z,13.20
2023-10-21T21:27:54.371Z,13.20
2023-10-21T21:30:21.688Z,13.20
2023-10-21T21:32:49.662Z,13.20
2023-10-21T21:35:17.248Z,13.20
2023-10-21T21:37:44.227Z,13.30
2023-10-21T21:40:11.283Z,13.30
2023-10-21T21:42:38.442Z,13.20
2023-10-21T21:45:06.006Z,13.10
2023-10-21T21:47:36.139Z,13.20
2023-10-21T21:50:05.332Z,13.20
2023-10-21T21:52:32.548Z,13.20
2023-10-21T21:54:59.681Z,13.10
2023-10-21T21:57:26.588Z,13.10
2023-10-21T21:59:53.410Z,13.20
2023-10-21T22:02:20.451Z,13.20
2023-10-21T22:04:48.478Z,13.10
2023-10-21T22:07:16.172Z,13.00
2023-10-21T22:09:43.459Z,13.10
2023-10-21T22:12:11.041Z,13.10
2023-10-21T22:14:38.679Z,13.10
2023-10-21T22:17:09.180Z,13.10
2023-10-21T22:19:37.140Z,13.20
2023-10-21T22:22:07.906Z,13.10
2023-10-21T22:24:35.526Z,13.10
2023-10-21T22:27:02.950Z,13.10
2023-10-21T22:29:30.850Z,13.10
2023-10-21T22:31:57.777Z,13.10
2023-10-21T22:34:24.932Z,13.10
2023-10-21T22:36:51.680Z,13.20
2023-10-21T22:39:18.551Z,13.30
2023-10-21T22:41:46.550Z,13.20
2023-10-21T22:44:13.868Z,13.30
2023-10-21T22:46:43.737Z,13.20
2023-10-21T22:49:10.907Z,13.30
2023-10-21T22:51:38.079Z,13.20
2023-10-21T22:54:05.239Z,13.10
2023-10-21T22:56:33.218Z,13.20
2023-10-21T22:59:00.124Z,13.10
2023-10-21T23:01:26.938Z,13.10
2023-10-21T23:03:53.842Z,13.20
2023-10-21T23:06:20.708Z,13.10
2023-10-21T23:08:49.427Z,13.20
2023-10-21T23:11:16.369Z,13.10
2023-10-21T23:13:43.463Z,13.00
2023-10-21T23:16:10.844Z,13.00
2023-10-21T23:18:38.588Z,13.00
2023-10-21T23:21:06.583Z,13.00
2023-10-21T23:23:33.955Z,13.00
2023-10-21T23:26:01.899Z,13.00
2023-10-21T23:28:29.875Z,13.00
2023-10-21T23:30:56.763Z,13.00
2023-10-21T23:33:23.868Z,12.90
2023-10-21T23:35:50.940Z,12.80
2023-10-21T23:38:18.671Z,12.80
2023-10-21T23:40:47.241Z,12.70
2023-10-21T23:43:14.098Z,12.70
2023-10-21T23:45:41.168Z,12.60
2023-10-21T23:48:08.462Z,12.70
2023-10-21T23:50:35.572Z,12.70
2023-10-21T23:53:02.457Z,12.60
2023-10-21T23:55:29.225Z,12.70
2023-10-21T23:57:55.994Z,12.60
